sensor_id;sensor_type;location;lat;lon;timestamp;pressure;altitude;pressure_sealevel;temperature
42197;BMP280;27866;48.146;17.098;2024-01-30T00:00:56;101780.16;;;5.83
42197;BMP280;27866;48.146;17.098;2024-01-30T00:05:08;101772.44;;;5.83
42197;BMP280;27866;48.146;17.098;2024-01-30T00:09:19;101770.72;;;5.82
42197;BMP280;27866;48.146;17.098;2024-01-30T00:13:31;101759.63;;;5.80
42197;BMP280;27866;48.146;17.098;2024-01-30T00:17:42;101763.13;;;5.77
42197;BMP280;27866;48.146;17.098;2024-01-30T00:21:54;101758.88;;;5.76
42197;BMP280;27866;48.146;17.098;2024-01-30T00:26:05;101746.06;;;5.73
42197;BMP280;27866;48.146;17.098;2024-01-30T00:30:17;101748.56;;;5.77
42197;BMP280;27866;48.146;17.098;2024-01-30T00:34:29;101747.72;;;5.77
42197;BMP280;27866;48.146;17.098;2024-01-30T00:38:40;101752.09;;;5.72
42197;BMP280;27866;48.146;17.098;2024-01-30T00:42:52;101757.28;;;5.69
42197;BMP280;27866;48.146;17.098;2024-01-30T00:47:05;101766.66;;;5.71
42197;BMP280;27866;48.146;17.098;2024-01-30T00:51:17;101777.03;;;5.68
42197;BMP280;27866;48.146;17.098;2024-01-30T00:55:28;101766.75;;;5.67
42197;BMP280;27866;48.146;17.098;2024-01-30T00:59:40;101774.44;;;5.67
42197;BMP280;27866;48.146;17.098;2024-01-30T01:03:51;101773.63;;;5.65
42197;BMP280;27866;48.146;17.098;2024-01-30T01:08:03;101763.41;;;5.62
42197;BMP280;27866;48.146;17.098;2024-01-30T01:12:14;101758.31;;;5.58
42197;BMP280;27866;48.146;17.098;2024-01-30T01:16:27;101764.41;;;5.52
42197;BMP280;27866;48.146;17.098;2024-01-30T01:20:38;101765.31;;;5.51
42197;BMP280;27866;48.146;17.098;2024-01-30T01:24:49;101764.59;;;5.44
42197;BMP280;27866;48.146;17.098;2024-01-30T01:29:01;101769.69;;;5.45
42197;BMP280;27866;48.146;17.098;2024-01-30T01:33:13;101758.53;;;5.48
42197;BMP280;27866;48.146;17.098;2024-01-30T01:37:25;101770.47;;;5.49
42197;BMP280;27866;48.146;17.098;2024-01-30T01:41:38;101760.28;;;5.46
42197;BMP280;27866;48.146;17.098;2024-01-30T01:45:49;101758.56;;;5.45
42197;BMP280;27866;48.146;17.098;2024-01-30T01:50:01;101760.41;;;5.37
42197;BMP280;27866;48.146;17.098;2024-01-30T01:54:12;101758.72;;;5.36
42197;BMP280;27866;48.146;17.098;2024-01-30T01:58:28;101755.31;;;5.35
42197;BMP280;27866;48.146;17.098;2024-01-30T02:02:40;101750.16;;;5.35
42197;BMP280;27866;48.146;17.098;2024-01-30T02:06:52;101750.13;;;5.37
42197;BMP280;27866;48.146;17.098;2024-01-30T02:11:04;101764.81;;;5.31
42197;BMP280;27866;48.146;17.098;2024-01-30T02:15:16;101760.53;;;5.30
42197;BMP280;27866;48.146;17.098;2024-01-30T02:19:27;101766.56;;;5.27
42197;BMP280;27866;48.146;17.098;2024-01-30T02:23:40;101758.88;;;5.27
42197;BMP280;27866;48.146;17.098;2024-01-30T02:27:52;101758.94;;;5.24
42197;BMP280;27866;48.146;17.098;2024-01-30T02:32:03;101754.59;;;5.28
42197;BMP280;27866;48.146;17.098;2024-01-30T02:36:15;101758.88;;;5.27
42197;BMP280;27866;48.146;17.098;2024-01-30T02:40:27;101757.09;;;5.32
42197;BMP280;27866;48.146;17.098;2024-01-30T02:44:38;101760.50;;;5.33
42197;BMP280;27866;48.146;17.098;2024-01-30T02:48:50;101743.31;;;5.36
42197;BMP280;27866;48.146;17.098;2024-01-30T02:53:01;101739.84;;;5.37
42197;BMP280;27866;48.146;17.098;2024-01-30T02:57:13;101741.56;;;5.36
42197;BMP280;27866;48.146;17.098;2024-01-30T03:01:24;101745.81;;;5.39
42197;BMP280;27866;48.146;17.098;2024-01-30T03:05:36;101741.59;;;5.35
42197;BMP280;27866;48.146;17.098;2024-01-30T03:09:47;101751.09;;;5.32
42197;BMP280;27866;48.146;17.098;2024-01-30T03:13:59;101742.53;;;5.33
42197;BMP280;27866;48.146;17.098;2024-01-30T03:18:11;101735.66;;;5.35
42197;BMP280;27866;48.146;17.098;2024-01-30T03:22:23;101744.19;;;5.35
42197;BMP280;27866;48.146;17.098;2024-01-30T03:26:35;101740.81;;;5.32
42197;BMP280;27866;48.146;17.098;2024-01-30T03:30:46;101740.84;;;5.30
42197;BMP280;27866;48.146;17.098;2024-01-30T03:34:58;101734.03;;;5.28
42197;BMP280;27866;48.146;17.098;2024-01-30T03:39:09;101730.69;;;5.24
42197;BMP280;27866;48.146;17.098;2024-01-30T03:43:21;101728.97;;;5.23
42197;BMP280;27866;48.146;17.098;2024-01-30T03:47:32;101731.56;;;5.22
42197;BMP280;27866;48.146;17.098;2024-01-30T03:51:44;101738.41;;;5.21
42197;BMP280;27866;48.146;17.098;2024-01-30T03:55:55;101735.06;;;5.18
42197;BMP280;27866;48.146;17.098;2024-01-30T04:00:07;101744.44;;;5.20
42197;BMP280;27866;48.146;17.098;2024-01-30T04:04:28;101746.16;;;5.20
42197;BMP280;27866;48.146;17.098;2024-01-30T04:08:39;101743.69;;;5.14
42197;BMP280;27866;48.146;17.098;2024-01-30T04:12:51;101738.66;;;5.10
42197;BMP280;27866;48.146;17.098;2024-01-30T04:17:03;101735.22;;;5.09
42197;BMP280;27866;48.146;17.098;2024-01-30T04:21:14;101733.50;;;5.10
42197;BMP280;27866;48.146;17.098;2024-01-30T04:25:26;101735.25;;;5.08
42197;BMP280;27866;48.146;17.098;2024-01-30T04:29:38;101732.72;;;5.05
42197;BMP280;27866;48.146;17.098;2024-01-30T04:33:49;101738.69;;;5.07
42197;BMP280;27866;48.146;17.098;2024-01-30T04:38:01;101736.16;;;5.04
42197;BMP280;27866;48.146;17.098;2024-01-30T04:42:12;101733.63;;;5.01
42197;BMP280;27866;48.146;17.098;2024-01-30T04:46:23;101737.94;;;4.99
42197;BMP280;27866;48.146;17.098;2024-01-30T04:50:35;101743.97;;;4.98
42197;BMP280;27866;48.146;17.098;2024-01-30T04:54:48;101737.09;;;4.99
42197;BMP280;27866;48.146;17.098;2024-01-30T04:58:59;101730.25;;;4.99
42197;BMP280;27866;48.146;17.098;2024-01-30T05:03:11;101749.03;;;5.01
42197;BMP280;27866;48.146;17.098;2024-01-30T05:07:24;101733.66;;;5.00
42197;BMP280;27866;48.146;17.098;2024-01-30T05:11:39;101741.38;;;5.00
42197;BMP280;27866;48.146;17.098;2024-01-30T05:15:51;101745.66;;;4.99
42197;BMP280;27866;48.146;17.098;2024-01-30T05:20:03;101738.78;;;5.01
42197;BMP280;27866;48.146;17.098;2024-01-30T05:24:16;101745.63;;;5.02
42197;BMP280;27866;48.146;17.098;2024-01-30T05:28:29;101744.69;;;5.05
42197;BMP280;27866;48.146;17.098;2024-01-30T05:32:41;101756.72;;;5.03
42197;BMP280;27866;48.146;17.098;2024-01-30T05:36:52;101745.66;;;4.99
42197;BMP280;27866;48.146;17.098;2024-01-30T05:41:04;101756.78;;;5.00
42197;BMP280;27866;48.146;17.098;2024-01-30T05:45:15;101758.47;;;4.99
42197;BMP280;27866;48.146;17.098;2024-01-30T05:49:27;101751.72;;;4.94
42197;BMP280;27866;48.146;17.098;2024-01-30T05:53:38;101755.16;;;4.94
42197;BMP280;27866;48.146;17.098;2024-01-30T05:57:50;101757.75;;;4.91
42197;BMP280;27866;48.146;17.098;2024-01-30T06:02:05;101756.06;;;4.91
42197;BMP280;27866;48.146;17.098;2024-01-30T06:06:16;101768.94;;;4.88
42197;BMP280;27866;48.146;17.098;2024-01-30T06:10:28;101773.22;;;4.89
42197;BMP280;27866;48.146;17.098;2024-01-30T06:14:39;101771.47;;;4.91
42197;BMP280;27866;48.146;17.098;2024-01-30T06:18:51;101770.59;;;4.93
42197;BMP280;27866;48.146;17.098;2024-01-30T06:23:03;101763.69;;;4.96
42197;BMP280;27866;48.146;17.098;2024-01-30T06:27:14;101765.31;;;4.99
42197;BMP280;27866;48.146;17.098;2024-01-30T06:31:27;101772.97;;;5.03
42197;BMP280;27866;48.146;17.098;2024-01-30T06:35:38;101776.34;;;5.08
42197;BMP280;27866;48.146;17.098;2024-01-30T06:39:51;101777.03;;;5.17
42197;BMP280;27866;48.146;17.098;2024-01-30T06:44:03;101772.63;;;5.25
42197;BMP280;27866;48.146;17.098;2024-01-30T06:48:17;101774.28;;;5.27
42197;BMP280;27866;48.146;17.098;2024-01-30T06:52:29;101780.09;;;5.36
42197;BMP280;27866;48.146;17.098;2024-01-30T06:56:40;101780.91;;;5.41
42197;BMP280;27866;48.146;17.098;2024-01-30T07:00:52;101789.28;;;5.50
42197;BMP280;27866;48.146;17.098;2024-01-30T07:05:04;101780.56;;;5.60
42197;BMP280;27866;48.146;17.098;2024-01-30T07:09:15;101789.88;;;5.67
42197;BMP280;27866;48.146;17.098;2024-01-30T07:13:28;101772.56;;;5.78
42197;BMP280;27866;48.146;17.098;2024-01-30T07:17:39;101783.47;;;5.88
42197;BMP280;27866;48.146;17.098;2024-01-30T07:21:51;101769.69;;;5.92
42197;BMP280;27866;48.146;17.098;2024-01-30T07:26:03;101780.75;;;5.97
42197;BMP280;27866;48.146;17.098;2024-01-30T07:30:14;101785.00;;;5.98
42197;BMP280;27866;48.146;17.098;2024-01-30T07:34:26;101779.72;;;6.05
42197;BMP280;27866;48.146;17.098;2024-01-30T07:38:38;101787.28;;;6.12
42197;BMP280;27866;48.146;17.098;2024-01-30T07:42:50;101769.81;;;6.27
42197;BMP280;27866;48.146;17.098;2024-01-30T07:47:03;101769.56;;;6.39
42197;BMP280;27866;48.146;17.098;2024-01-30T07:51:14;101770.25;;;6.47
42197;BMP280;27866;48.146;17.098;2024-01-30T07:55:26;101765.78;;;6.54
42197;BMP280;27866;48.146;17.098;2024-01-30T07:59:45;101776.69;;;6.65
42197;BMP280;27866;48.146;17.098;2024-01-30T08:03:57;101762.06;;;6.67
42197;BMP280;27866;48.146;17.098;2024-01-30T08:08:08;101775.59;;;6.76
42197;BMP280;27866;48.146;17.098;2024-01-30T08:12:20;101779.72;;;6.83
42197;BMP280;27866;48.146;17.098;2024-01-30T08:16:31;101775.25;;;6.91
42197;BMP280;27866;48.146;17.098;2024-01-30T08:20:43;101777.59;;;6.99
42197;BMP280;27866;48.146;17.098;2024-01-30T08:24:54;101781.53;;;7.15
42197;BMP280;27866;48.146;17.098;2024-01-30T08:29:06;101773.56;;;7.25
42197;BMP280;27866;48.146;17.098;2024-01-30T08:33:18;101758.38;;;7.47
42197;BMP280;27866;48.146;17.098;2024-01-30T08:37:30;101766.94;;;9.22
42197;BMP280;27866;48.146;17.098;2024-01-30T08:41:41;101748.19;;;11.21
42197;BMP280;27866;48.146;17.098;2024-01-30T08:45:53;101745.88;;;12.85
42197;BMP280;27866;48.146;17.098;2024-01-30T08:50:05;101730.75;;;15.02
42197;BMP280;27866;48.146;17.098;2024-01-30T08:54:16;101726.28;;;15.19
42197;BMP280;27866;48.146;17.098;2024-01-30T08:58:29;101727.97;;;14.75
42197;BMP280;27866;48.146;17.098;2024-01-30T09:02:40;101731.41;;;15.36
42197;BMP280;27866;48.146;17.098;2024-01-30T09:06:52;101723.94;;;16.00
42197;BMP280;27866;48.146;17.098;2024-01-30T09:11:14;101716.88;;;17.72
42197;BMP280;27866;48.146;17.098;2024-01-30T09:15:26;101701.06;;;19.95
42197;BMP280;27866;48.146;17.098;2024-01-30T09:19:37;101718.59;;;17.73
42197;BMP280;27866;48.146;17.098;2024-01-30T09:23:49;101741.25;;;14.71
42197;BMP280;27866;48.146;17.098;2024-01-30T09:28:00;101743.34;;;13.02
42197;BMP280;27866;48.146;17.098;2024-01-30T09:32:12;101740.13;;;11.87
42197;BMP280;27866;48.146;17.098;2024-01-30T09:36:24;101750.25;;;11.12
42197;BMP280;27866;48.146;17.098;2024-01-30T09:40:36;101756.53;;;10.64
42197;BMP280;27866;48.146;17.098;2024-01-30T09:44:47;101744.19;;;10.49
42197;BMP280;27866;48.146;17.098;2024-01-30T09:49:02;101740.28;;;10.38
42197;BMP280;27866;48.146;17.098;2024-01-30T09:53:14;101731.34;;;10.24
42197;BMP280;27866;48.146;17.098;2024-01-30T09:57:26;101739.09;;;10.24
42197;BMP280;27866;48.146;17.098;2024-01-30T10:01:39;101730.31;;;10.28
42197;BMP280;27866;48.146;17.098;2024-01-30T10:05:51;101728.50;;;10.30
42197;BMP280;27866;48.146;17.098;2024-01-30T10:10:06;101734.50;;;10.32
42197;BMP280;27866;48.146;17.098;2024-01-30T10:14:18;101719.44;;;10.41
42197;BMP280;27866;48.146;17.098;2024-01-30T10:18:33;101712.38;;;10.46
42197;BMP280;27866;48.146;17.098;2024-01-30T10:22:48;101699.97;;;10.54
42197;BMP280;27866;48.146;17.098;2024-01-30T10:27:00;101700.31;;;10.66
42197;BMP280;27866;48.146;17.098;2024-01-30T10:31:17;101693.09;;;10.73
42197;BMP280;27866;48.146;17.098;2024-01-30T10:35:29;101689.84;;;10.69
42197;BMP280;27866;48.146;17.098;2024-01-30T10:39:41;101675.75;;;10.75
42197;BMP280;27866;48.146;17.098;2024-01-30T10:44:13;101667.19;;;10.73
42197;BMP280;27866;48.146;17.098;2024-01-30T10:48:30;101663.72;;;10.74
42197;BMP280;27866;48.146;17.098;2024-01-30T10:52:43;101663.47;;;10.80
42197;BMP280;27866;48.146;17.098;2024-01-30T10:56:57;101659.16;;;10.79
42197;BMP280;27866;48.146;17.098;2024-01-30T11:01:12;101652.06;;;10.84
42197;BMP280;27866;48.146;17.098;2024-01-30T11:05:25;101655.63;;;10.82
42197;BMP280;27866;48.146;17.098;2024-01-30T11:09:40;101644.16;;;10.87
42197;BMP280;27866;48.146;17.098;2024-01-30T11:13:53;101641.25;;;10.94
42197;BMP280;27866;48.146;17.098;2024-01-30T11:18:04;101635.75;;;11.01
42197;BMP280;27866;48.146;17.098;2024-01-30T11:22:19;101632.91;;;11.07
42197;BMP280;27866;48.146;17.098;2024-01-30T11:26:33;101629.94;;;11.16
42197;BMP280;27866;48.146;17.098;2024-01-30T11:30:44;101619.34;;;11.22
42197;BMP280;27866;48.146;17.098;2024-01-30T11:34:58;101619.22;;;11.25
42197;BMP280;27866;48.146;17.098;2024-01-30T11:39:10;101607.94;;;11.26
42197;BMP280;27866;48.146;17.098;2024-01-30T11:43:22;101600.94;;;11.28
42197;BMP280;27866;48.146;17.098;2024-01-30T11:47:38;101604.94;;;11.34
42197;BMP280;27866;48.146;17.098;2024-01-30T11:51:50;101599.75;;;11.34
42197;BMP280;27866;48.146;17.098;2024-01-30T11:56:02;101590.88;;;11.40
42197;BMP280;27866;48.146;17.098;2024-01-30T12:00:16;101575.03;;;11.45
42197;BMP280;27866;48.146;17.098;2024-01-30T12:04:29;101581.72;;;11.51
42197;BMP280;27866;48.146;17.098;2024-01-30T12:08:41;101570.28;;;11.55
42197;BMP280;27866;48.146;17.098;2024-01-30T12:12:52;101567.34;;;11.62
42197;BMP280;27866;48.146;17.098;2024-01-30T12:17:05;101555.72;;;11.70
42197;BMP280;27866;48.146;17.098;2024-01-30T12:21:17;101562.47;;;11.74
42197;BMP280;27866;48.146;17.098;2024-01-30T12:25:29;101552.78;;;11.77
42197;BMP280;27866;48.146;17.098;2024-01-30T12:29:42;101559.50;;;11.81
42197;BMP280;27866;48.146;17.098;2024-01-30T12:33:54;101544.91;;;11.79
42197;BMP280;27866;48.146;17.098;2024-01-30T12:38:06;101554.41;;;11.80
42197;BMP280;27866;48.146;17.098;2024-01-30T12:42:20;101552.13;;;11.90
42197;BMP280;27866;48.146;17.098;2024-01-30T12:46:35;101545.28;;;11.89
42197;BMP280;27866;48.146;17.098;2024-01-30T12:50:46;101545.19;;;11.91
42197;BMP280;27866;48.146;17.098;2024-01-30T12:54:58;101546.06;;;11.91
42197;BMP280;27866;48.146;17.098;2024-01-30T12:59:09;101528.72;;;11.92
42197;BMP280;27866;48.146;17.098;2024-01-30T13:03:21;101542.41;;;11.95
42197;BMP280;27866;48.146;17.098;2024-01-30T13:07:33;101538.88;;;11.96
42197;BMP280;27866;48.146;17.098;2024-01-30T13:11:45;101530.97;;;11.99
42197;BMP280;27866;48.146;17.098;2024-01-30T13:15:57;101529.25;;;11.98
42197;BMP280;27866;48.146;17.098;2024-01-30T13:20:09;101517.13;;;11.99
42197;BMP280;27866;48.146;17.098;2024-01-30T13:24:22;101522.41;;;11.97
42197;BMP280;27866;48.146;17.098;2024-01-30T13:28:34;101527.59;;;11.97
42197;BMP280;27866;48.146;17.098;2024-01-30T13:32:45;101521.63;;;11.95
42197;BMP280;27866;48.146;17.098;2024-01-30T13:36:58;101528.66;;;11.93
42197;BMP280;27866;48.146;17.098;2024-01-30T13:41:10;101520.69;;;11.96
42197;BMP280;27866;48.146;17.098;2024-01-30T13:45:21;101523.03;;;12.02
42197;BMP280;27866;48.146;17.098;2024-01-30T13:49:33;101528.97;;;12.04
42197;BMP280;27866;48.146;17.098;2024-01-30T13:53:45;101528.38;;;11.99
42197;BMP280;27866;48.146;17.098;2024-01-30T13:57:56;101524.06;;;11.98
42197;BMP280;27866;48.146;17.098;2024-01-30T14:02:08;101522.03;;;11.87
42197;BMP280;27866;48.146;17.098;2024-01-30T14:06:21;101519.59;;;11.84
42197;BMP280;27866;48.146;17.098;2024-01-30T14:10:33;101511.13;;;11.80
42197;BMP280;27866;48.146;17.098;2024-01-30T14:14:44;101522.47;;;11.78
42197;BMP280;27866;48.146;17.098;2024-01-30T14:18:56;101509.50;;;11.78
42197;BMP280;27866;48.146;17.098;2024-01-30T14:23:07;101509.00;;;11.70
42197;BMP280;27866;48.146;17.098;2024-01-30T14:27:19;101523.03;;;11.66
42197;BMP280;27866;48.146;17.098;2024-01-30T14:31:30;101515.53;;;11.60
42197;BMP280;27866;48.146;17.098;2024-01-30T14:35:42;101522.44;;;11.60
42197;BMP280;27866;48.146;17.098;2024-01-30T14:39:53;101520.09;;;11.56
42197;BMP280;27866;48.146;17.098;2024-01-30T14:44:05;101521.91;;;11.54
42197;BMP280;27866;48.146;17.098;2024-01-30T14:48:17;101518.75;;;11.47
42197;BMP280;27866;48.146;17.098;2024-01-30T14:52:28;101519.84;;;11.42
42197;BMP280;27866;48.146;17.098;2024-01-30T14:56:40;101514.88;;;11.38
42197;BMP280;27866;48.146;17.098;2024-01-30T15:00:51;101528.06;;;11.33
42197;BMP280;27866;48.146;17.098;2024-01-30T15:05:03;101521.31;;;11.30
42197;BMP280;27866;48.146;17.098;2024-01-30T15:09:15;101519.03;;;11.22
42197;BMP280;27866;48.146;17.098;2024-01-30T15:13:27;101524.78;;;11.09
42197;BMP280;27866;48.146;17.098;2024-01-30T15:17:39;101531.78;;;11.07
42197;BMP280;27866;48.146;17.098;2024-01-30T15:21:50;101531.16;;;11.02
42197;BMP280;27866;48.146;17.098;2024-01-30T15:26:02;101529.94;;;10.91
42197;BMP280;27866;48.146;17.098;2024-01-30T15:30:14;101529.94;;;10.91
42197;BMP280;27866;48.146;17.098;2024-01-30T15:34:26;101521.97;;;10.76
42197;BMP280;27866;48.146;17.098;2024-01-30T15:38:37;101529.72;;;10.57
42197;BMP280;27866;48.146;17.098;2024-01-30T15:42:49;101547.44;;;10.46
42197;BMP280;27866;48.146;17.098;2024-01-30T15:47:01;101542.84;;;10.32
42197;BMP280;27866;48.146;17.098;2024-01-30T15:51:12;101539.84;;;10.21
42197;BMP280;27866;48.146;17.098;2024-01-30T15:55:24;101542.28;;;10.05
42197;BMP280;27866;48.146;17.098;2024-01-30T15:59:36;101532.25;;;9.96
42197;BMP280;27866;48.146;17.098;2024-01-30T16:03:48;101539.47;;;9.88
42197;BMP280;27866;48.146;17.098;2024-01-30T16:08:00;101535.75;;;9.73
42197;BMP280;27866;48.146;17.098;2024-01-30T16:12:11;101543.69;;;9.69
42197;BMP280;27866;48.146;17.098;2024-01-30T16:16:23;101537.88;;;9.62
42197;BMP280;27866;48.146;17.098;2024-01-30T16:20:34;101547.78;;;9.52
42197;BMP280;27866;48.146;17.098;2024-01-30T16:24:46;101546.59;;;9.38
42197;BMP280;27866;48.146;17.098;2024-01-30T16:28:58;101552.25;;;9.25
42197;BMP280;27866;48.146;17.098;2024-01-30T16:33:10;101548.03;;;9.22
42197;BMP280;27866;48.146;17.098;2024-01-30T16:37:22;101544.03;;;9.14
42197;BMP280;27866;48.146;17.098;2024-01-30T16:41:33;101541.91;;;9.25
42197;BMP280;27866;48.146;17.098;2024-01-30T16:45:45;101549.09;;;9.17
42197;BMP280;27866;48.146;17.098;2024-01-30T16:49:57;101546.84;;;9.08
42197;BMP280;27866;48.146;17.098;2024-01-30T16:54:09;101551.22;;;9.06
42197;BMP280;27866;48.146;17.098;2024-01-30T16:58:20;101550.50;;;9.01
42197;BMP280;27866;48.146;17.098;2024-01-30T17:02:32;101556.09;;;8.90
42197;BMP280;27866;48.146;17.098;2024-01-30T17:06:43;101560.69;;;8.82
42197;BMP280;27866;48.146;17.098;2024-01-30T17:10:56;101559.72;;;8.84
42197;BMP280;27866;48.146;17.098;2024-01-30T17:15:08;101551.25;;;8.81
42197;BMP280;27866;48.146;17.098;2024-01-30T17:19:21;101555.53;;;8.82
42197;BMP280;27866;48.146;17.098;2024-01-30T17:23:33;101536.94;;;8.71
42197;BMP280;27866;48.146;17.098;2024-01-30T17:27:45;101549.38;;;8.61
42197;BMP280;27866;48.146;17.098;2024-01-30T17:32:00;101546.28;;;8.50
42197;BMP280;27866;48.146;17.098;2024-01-30T17:36:11;101551.69;;;8.44
42197;BMP280;27866;48.146;17.098;2024-01-30T17:40:25;101548.50;;;8.37
42197;BMP280;27866;48.146;17.098;2024-01-30T17:44:36;101557.41;;;8.27
42197;BMP280;27866;48.146;17.098;2024-01-30T17:48:51;101550.66;;;8.23
42197;BMP280;27866;48.146;17.098;2024-01-30T17:53:03;101555.16;;;8.17
42197;BMP280;27866;48.146;17.098;2024-01-30T17:57:16;101557.88;;;8.12
42197;BMP280;27866;48.146;17.098;2024-01-30T18:01:28;101565.84;;;8.05
42197;BMP280;27866;48.146;17.098;2024-01-30T18:05:40;101563.44;;;8.01
42197;BMP280;27866;48.146;17.098;2024-01-30T18:09:52;101571.38;;;7.94
42197;BMP280;27866;48.146;17.098;2024-01-30T18:14:04;101577.53;;;7.88
42197;BMP280;27866;48.146;17.098;2024-01-30T18:18:15;101569.91;;;7.85
42197;BMP280;27866;48.146;17.098;2024-01-30T18:22:27;101572.66;;;7.80
42197;BMP280;27866;48.146;17.098;2024-01-30T18:26:38;101568.66;;;7.70
42197;BMP280;27866;48.146;17.098;2024-01-30T18:30:50;101566.25;;;7.64
42197;BMP280;27866;48.146;17.098;2024-01-30T18:35:01;101569.91;;;7.57
42197;BMP280;27866;48.146;17.098;2024-01-30T18:39:13;101560.50;;;7.55
42197;BMP280;27866;48.146;17.098;2024-01-30T18:43:25;101569.28;;;7.48
42197;BMP280;27866;48.146;17.098;2024-01-30T18:47:37;101563.50;;;7.42
42197;BMP280;27866;48.146;17.098;2024-01-30T18:51:49;101555.94;;;7.36
42197;BMP280;27866;48.146;17.098;2024-01-30T18:56:06;101557.88;;;7.28
42197;BMP280;27866;48.146;17.098;2024-01-30T19:00:17;101558.03;;;7.23
42197;BMP280;27866;48.146;17.098;2024-01-30T19:04:29;101552.13;;;7.19
42197;BMP280;27866;48.146;17.098;2024-01-30T19:08:41;101555.72;;;7.12
42197;BMP280;27866;48.146;17.098;2024-01-30T19:12:52;101571.34;;;7.07
42197;BMP280;27866;48.146;17.098;2024-01-30T19:17:04;101563.00;;;6.99
42197;BMP280;27866;48.146;17.098;2024-01-30T19:21:16;101568.34;;;6.92
42197;BMP280;27866;48.146;17.098;2024-01-30T19:25:29;101581.38;;;6.86
42197;BMP280;27866;48.146;17.098;2024-01-30T19:29:41;101583.13;;;6.84
42197;BMP280;27866;48.146;17.098;2024-01-30T19:33:52;101580.66;;;6.81
42197;BMP280;27866;48.146;17.098;2024-01-30T19:38:06;101573.06;;;6.75
42197;BMP280;27866;48.146;17.098;2024-01-30T19:42:20;101586.03;;;6.72
42197;BMP280;27866;48.146;17.098;2024-01-30T19:46:31;101575.09;;;6.65
42197;BMP280;27866;48.146;17.098;2024-01-30T19:50:43;101585.47;;;6.60
42197;BMP280;27866;48.146;17.098;2024-01-30T19:54:54;101576.19;;;6.55
42197;BMP280;27866;48.146;17.098;2024-01-30T19:59:06;101579.63;;;6.54
42197;BMP280;27866;48.146;17.098;2024-01-30T20:03:17;101583.16;;;6.50
42197;BMP280;27866;48.146;17.098;2024-01-30T20:07:29;101577.34;;;6.44
42197;BMP280;27866;48.146;17.098;2024-01-30T20:11:40;101575.72;;;6.40
42197;BMP280;27866;48.146;17.098;2024-01-30T20:15:52;101566.25;;;6.40
42197;BMP280;27866;48.146;17.098;2024-01-30T20:20:05;101565.56;;;6.34
42197;BMP280;27866;48.146;17.098;2024-01-30T20:24:17;101557.91;;;6.33
42197;BMP280;27866;48.146;17.098;2024-01-30T20:28:28;101567.44;;;6.28
42197;BMP280;27866;48.146;17.098;2024-01-30T20:32:40;101563.19;;;6.27
42197;BMP280;27866;48.146;17.098;2024-01-30T20:36:52;101564.09;;;6.24
42197;BMP280;27866;48.146;17.098;2024-01-30T20:41:04;101564.09;;;6.24
42197;BMP280;27866;48.146;17.098;2024-01-30T20:45:20;101569.22;;;6.24
42197;BMP280;27866;48.146;17.098;2024-01-30T20:49:31;101558.19;;;6.21
42197;BMP280;27866;48.146;17.098;2024-01-30T20:53:43;101551.31;;;6.20
42197;BMP280;27866;48.146;17.098;2024-01-30T20:57:56;101559.16;;;6.16
42197;BMP280;27866;48.146;17.098;2024-01-30T21:02:07;101562.66;;;6.13
42197;BMP280;27866;48.146;17.098;2024-01-30T21:06:19;101554.06;;;6.13
42197;BMP280;27866;48.146;17.098;2024-01-30T21:10:30;101558.38;;;6.12
42197;BMP280;27866;48.146;17.098;2024-01-30T21:14:42;101553.31;;;6.09
42197;BMP280;27866;48.146;17.098;2024-01-30T21:18:53;101552.44;;;6.09
42197;BMP280;27866;48.146;17.098;2024-01-30T21:23:05;101555.06;;;6.07
42197;BMP280;27866;48.146;17.098;2024-01-30T21:27:18;101550.78;;;6.07
42197;BMP280;27866;48.146;17.098;2024-01-30T21:31:30;101539.63;;;6.07
42197;BMP280;27866;48.146;17.098;2024-01-30T21:35:41;101540.50;;;6.07
42197;BMP280;27866;48.146;17.098;2024-01-30T21:39:53;101548.22;;;6.08
42197;BMP280;27866;48.146;17.098;2024-01-30T21:44:05;101542.25;;;6.05
42197;BMP280;27866;48.146;17.098;2024-01-30T21:48:17;101541.41;;;6.06
42197;BMP280;27866;48.146;17.098;2024-01-30T21:52:28;101543.16;;;6.04
42197;BMP280;27866;48.146;17.098;2024-01-30T21:56:42;101540.59;;;6.04
42197;BMP280;27866;48.146;17.098;2024-01-30T22:00:54;101543.16;;;6.04
42197;BMP280;27866;48.146;17.098;2024-01-30T22:05:06;101553.44;;;6.04
42197;BMP280;27866;48.146;17.098;2024-01-30T22:09:17;101556.88;;;6.03
42197;BMP280;27866;48.146;17.098;2024-01-30T22:13:29;101557.72;;;6.03
42197;BMP280;27866;48.146;17.098;2024-01-30T22:17:40;101564.59;;;6.03
42197;BMP280;27866;48.146;17.098;2024-01-30T22:21:52;101560.25;;;6.05
42197;BMP280;27866;48.146;17.098;2024-01-30T22:26:04;101561.94;;;6.07
42197;BMP280;27866;48.146;17.098;2024-01-30T22:30:15;101566.16;;;6.09
42197;BMP280;27866;48.146;17.098;2024-01-30T22:34:27;101559.31;;;6.10
42197;BMP280;27866;48.146;17.098;2024-01-30T22:38:42;101556.78;;;6.07
42197;BMP280;27866;48.146;17.098;2024-01-30T22:42:53;101553.56;;;5.98
42197;BMP280;27866;48.146;17.098;2024-01-30T22:47:05;101562.09;;;6.00
42197;BMP280;27866;48.146;17.098;2024-01-30T22:51:17;101560.41;;;5.99
42197;BMP280;27866;48.146;17.098;2024-01-30T22:55:29;101563.09;;;5.94
42197;BMP280;27866;48.146;17.098;2024-01-30T22:59:40;101554.53;;;5.94
42197;BMP280;27866;48.146;17.098;2024-01-30T23:03:53;101562.25;;;5.94
42197;BMP280;27866;48.146;17.098;2024-01-30T23:08:05;101559.00;;;5.86
42197;BMP280;27866;48.146;17.098;2024-01-30T23:12:17;101565.88;;;5.84
42197;BMP280;27866;48.146;17.098;2024-01-30T23:16:29;101559.13;;;5.80
42197;BMP280;27866;48.146;17.098;2024-01-30T23:20:41;101562.59;;;5.79
42197;BMP280;27866;48.146;17.098;2024-01-30T23:24:53;101558.38;;;5.76
42197;BMP280;27866;48.146;17.098;2024-01-30T23:29:04;101550.69;;;5.76
42197;BMP280;27866;48.146;17.098;2024-01-30T23:33:16;101555.84;;;5.74
42197;BMP280;27866;48.146;17.098;2024-01-30T23:37:27;101552.47;;;5.71
42197;BMP280;27866;48.146;17.098;2024-01-30T23:41:39;101553.38;;;5.70